Time;durP1;ratioP1;P1;durP2;ratioP2;P2;SDS_P1;SDS_P2;PMS_P1;PMS_P2;Temp;Humidity;BMP_temperature;BMP_pressure;BME280_temperature;BME280_humidity;BME280_pressure;Samples;Min_cycle;Max_cycle;Signal;HPM_P1;HPM_P2
2021/12/08 00:02:15;;;;;;;20.15;14.90;;;;;;;15.50;43.74;92292.31;4986851;28;20031;-89
2021/12/08 00:04:41;;;;;;;16.63;12.05;;;;;;;15.52;43.72;92287.09;4987669;28;20547;-84
2021/12/08 00:07:07;;;;;;;20.92;15.07;;;;;;;15.52;43.90;92286.34;4970261;28;20493;-84
2021/12/08 00:09:49;;;;;;;19.95;14.05;;;;;;;15.52;43.75;92289.81;4990056;28;20100;-84
2021/12/08 00:14:59;;;;;;;17.83;13.88;;;;;;;15.49;43.80;92281.94;4987481;28;20568;-85
2021/12/08 00:17:25;;;;;;;18.45;14.40;;;;;;;15.51;43.47;92268.53;4970405;28;20050;-84
2021/12/08 00:19:50;;;;;;;21.45;14.23;;;;;;;15.54;43.37;92264.78;4971550;28;20752;-83
2021/12/08 00:22:16;;;;;;;17.65;12.88;;;;;;;15.52;43.68;92259.09;4999471;28;20049;-85
2021/12/08 00:24:41;;;;;;;18.63;12.70;;;;;;;15.56;43.44;92262.28;4971242;28;20077;-84
2021/12/08 00:27:07;;;;;;;16.52;12.15;;;;;;;15.51;43.36;92255.66;4970612;28;20093;-84
2021/12/08 00:29:32;;;;;;;18.25;12.77;;;;;;;15.49;43.65;92241.81;4971133;28;20549;-84
2021/12/08 00:31:59;;;;;;;17.67;11.32;;;;;;;15.53;43.15;92244.25;4987211;28;20043;-84
2021/12/08 00:34:24;;;;;;;17.23;12.65;;;;;;;15.54;43.36;92240.25;4987029;28;20045;-84
2021/12/08 00:36:54;;;;;;;16.15;11.68;;;;;;;15.48;43.48;92239.59;4974138;28;20512;-84
2021/12/08 00:39:20;;;;;;;16.77;12.00;;;;;;;15.50;43.26;92229.66;4990673;28;20038;-84
2021/12/08 00:41:45;;;;;;;17.10;12.52;;;;;;;15.51;43.34;92233.13;4990228;28;20612;-83
2021/12/08 00:44:11;;;;;;;17.05;12.73;;;;;;;15.54;43.36;92227.38;5006274;28;20038;-84
2021/12/08 00:46:37;;;;;;;17.00;12.00;;;;;;;15.52;43.25;92221.72;4973637;28;20045;-85
2021/12/08 00:49:04;;;;;;;16.08;11.82;;;;;;;15.59;43.12;92214.94;4989744;28;20390;-84
2021/12/08 00:51:29;;;;;;;18.08;11.68;;;;;;;15.49;43.23;92225.47;4973816;28;20382;-84
2021/12/08 00:53:54;;;;;;;15.98;11.82;;;;;;;15.44;43.30;92213.41;4990676;28;20045;-88
2021/12/08 00:56:20;;;;;;;17.95;12.45;;;;;;;15.47;43.33;92208.91;4989624;28;20049;-84
2021/12/08 00:58:45;;;;;;;15.88;11.23;;;;;;;15.52;43.33;92213.53;4990052;28;20038;-84
2021/12/08 01:01:12;;;;;;;18.02;12.25;;;;;;;15.49;43.40;92211.84;4993347;28;20116;-85
2021/12/08 01:03:37;;;;;;;17.38;12.50;;;;;;;15.52;43.36;92204.63;4994004;28;20049;-84
2021/12/08 01:06:03;;;;;;;15.85;11.82;;;;;;;15.50;43.30;92218.03;4977407;28;20338;-92
2021/12/08 01:08:33;;;;;;;17.13;11.60;;;;;;;15.52;43.17;92219.00;4977437;28;20064;-85
2021/12/08 01:11:01;;;;;;;13.85;10.95;;;;;;;15.52;43.26;92201.91;4989779;28;20038;-84
2021/12/08 01:13:27;;;;;;;15.65;11.52;;;;;;;15.55;43.02;92195.44;5007417;28;20030;-84
2021/12/08 01:15:54;;;;;;;15.98;11.68;;;;;;;15.51;43.52;92195.72;4990963;28;20034;-84
2021/12/08 01:18:19;;;;;;;14.50;11.00;;;;;;;15.48;43.78;92185.13;5005756;28;20038;-84
2021/12/08 01:20:45;;;;;;;15.95;11.43;;;;;;;15.50;42.88;92188.81;4974626;28;20042;-91
2021/12/08 01:23:11;;;;;;;14.73;10.75;;;;;;;15.49;43.59;92186.59;4993307;28;20493;-84
2021/12/08 01:25:36;;;;;;;15.45;11.32;;;;;;;15.50;43.27;92183.38;4993785;28;20147;-87
2021/12/08 01:28:02;;;;;;;17.73;11.25;;;;;;;15.47;43.60;92173.50;4992887;28;20058;-87
2021/12/08 01:30:27;;;;;;;12.10;9.05;;;;;;;15.47;43.14;92161.88;4992735;28;20121;-86
2021/12/08 01:32:53;;;;;;;14.48;10.93;;;;;;;15.48;43.17;92163.34;4976720;28;20089;-84
2021/12/08 01:35:19;;;;;;;12.60;9.50;;;;;;;15.51;42.79;92162.31;4976874;28;20042;-84
2021/12/08 01:37:44;;;;;;;11.43;9.10;;;;;;;15.52;43.00;92155.59;4972178;28;20034;-84
2021/12/08 01:40:11;;;;;;;14.00;9.68;;;;;;;15.50;43.29;92161.56;4939518;28;20085;-86
2021/12/08 01:42:43;;;;;;;13.63;9.98;;;;;;;15.49;43.05;92151.94;4955935;28;20043;-84
2021/12/08 01:47:53;;;;;;;15.18;10.38;;;;;;;15.42;43.31;92145.13;4994380;28;20045;-85
2021/12/08 01:50:19;;;;;;;11.95;9.52;;;;;;;15.50;43.20;92144.50;4974501;28;20038;-85
2021/12/08 01:52:44;;;;;;;13.98;9.75;;;;;;;15.47;43.00;92142.81;4988437;28;20080;-84
2021/12/08 01:55:10;;;;;;;13.15;9.82;;;;;;;15.47;43.41;92129.19;4971033;28;20042;-90
2021/12/08 01:57:37;;;;;;;11.05;8.43;;;;;;;15.48;42.84;92127.94;4983683;28;20053;-84
2021/12/08 02:00:11;;;;;;;14.05;9.40;;;;;;;15.42;43.03;92123.31;4968366;28;20042;-90
2021/12/08 02:02:36;;;;;;;13.77;9.20;;;;;;;15.47;42.92;92127.22;4952306;28;20039;-86
2021/12/08 02:05:02;;;;;;;14.25;9.20;;;;;;;15.42;43.31;92119.88;4952008;28;20078;-84
2021/12/08 02:07:29;;;;;;;11.30;9.07;;;;;;;15.39;43.39;92110.75;4968604;28;20070;-85
2021/12/08 02:09:54;;;;;;;10.98;7.38;;;;;;;15.47;43.26;92102.72;4951828;28;20059;-84
2021/12/08 02:12:20;;;;;;;12.13;8.88;;;;;;;15.48;43.14;92098.00;4937786;28;20080;-91
2021/12/08 02:14:45;;;;;;;13.15;9.38;;;;;;;15.44;43.28;92095.56;4970444;28;20042;-84
2021/12/08 02:17:11;;;;;;;10.32;7.13;;;;;;;15.41;43.18;92088.44;4938131;28;20501;-85
2021/12/08 02:19:38;;;;;;;11.02;8.65;;;;;;;15.43;43.13;92080.50;4987959;28;20038;-84
2021/12/08 02:22:04;;;;;;;11.68;8.10;;;;;;;15.46;43.25;92060.38;4986490;28;20626;-85
2021/12/08 02:24:29;;;;;;;12.07;8.65;;;;;;;15.44;43.19;92081.97;5016793;28;20197;-84
2021/12/08 02:26:57;;;;;;;10.55;7.70;;;;;;;15.44;42.97;92060.19;4992559;28;20115;-84
2021/12/08 02:29:34;;;;;;;11.10;8.27;;;;;;;15.43;43.13;92056.72;4975651;28;20046;-86
2021/12/08 02:32:10;;;;;;;13.05;8.48;;;;;;;15.46;42.79;92046.03;4978218;28;20037;-84
2021/12/08 02:48:16;;;;;;;9.57;7.85;;;;;;;15.44;43.17;92052.75;5007999;28;20049;-84
2021/12/08 02:50:42;;;;;;;11.15;7.55;;;;;;;15.41;43.29;92047.59;4992178;28;20042;-89
2021/12/08 02:53:08;;;;;;;10.75;8.13;;;;;;;15.43;42.81;92040.38;4975306;28;20568;-83
2021/12/08 02:55:33;;;;;;;9.32;7.13;;;;;;;15.40;43.88;92022.38;4975965;28;20038;-84
2021/12/08 02:58:01;;;;;;;10.25;7.55;;;;;;;15.47;42.94;92025.72;4971856;28;20129;-84
2021/12/08 03:00:27;;;;;;;10.43;7.50;;;;;;;15.51;42.61;92024.16;5004843;28;20060;-85
2021/12/08 03:02:54;;;;;;;10.82;7.72;;;;;;;15.44;42.80;92019.34;4975876;28;20034;-87
2021/12/08 03:05:20;;;;;;;9.57;7.53;;;;;;;15.42;42.93;92011.69;4975148;28;20042;-93
2021/12/08 03:07:45;;;;;;;9.90;7.35;;;;;;;15.41;42.81;92015.66;4992673;28;20042;-89
2021/12/08 03:10:15;;;;;;;9.27;6.55;;;;;;;15.41;42.96;92015.66;5006901;28;20038;-91
2021/12/08 03:12:41;;;;;;;7.95;6.30;;;;;;;15.37;43.24;92011.81;4992905;28;20026;-85
2021/12/08 03:15:08;;;;;;;10.30;7.15;;;;;;;15.42;43.15;92008.22;4990922;28;20026;-84
2021/12/08 03:17:34;;;;;;;8.70;7.15;;;;;;;15.41;42.77;92007.50;4991510;28;20576;-84
2021/12/08 03:20:00;;;;;;;8.45;6.47;;;;;;;15.37;43.25;92009.09;4991314;28;20034;-89
2021/12/08 03:22:25;;;;;;;10.10;6.72;;;;;;;15.43;42.96;92015.13;4986472;28;20041;-84
2021/12/08 03:24:52;;;;;;;9.82;7.80;;;;;;;15.42;43.04;92017.13;4988022;28;20031;-93
2021/12/08 03:27:22;;;;;;;9.52;6.80;;;;;;;15.42;42.66;92008.22;4987728;28;20046;-85
2021/12/08 03:29:54;;;;;;;9.80;7.07;;;;;;;15.40;42.90;91992.41;4972407;28;20042;-84
2021/12/08 03:32:28;;;;;;;8.77;6.55;;;;;;;15.40;42.85;91997.84;4956012;28;20030;-86
2021/12/08 03:34:53;;;;;;;9.10;6.95;;;;;;;15.44;42.96;91997.53;4977038;28;20378;-85
2021/12/08 03:37:28;;;;;;;7.90;6.63;;;;;;;15.41;42.80;91995.88;5007164;28;20108;-84
2021/12/08 03:39:54;;;;;;;8.65;6.60;;;;;;;15.47;42.79;92001.22;4991769;28;20064;-85
2021/12/08 03:42:20;;;;;;;8.80;6.38;;;;;;;15.47;42.72;91991.06;4990505;28;20094;-83
2021/12/08 03:44:47;;;;;;;7.85;6.32;;;;;;;15.45;42.82;91988.13;4975209;28;20042;-86
2021/12/08 03:47:15;;;;;;;7.25;5.40;;;;;;;15.35;42.83;91976.94;4986955;28;20539;-84
2021/12/08 03:49:42;;;;;;;7.47;5.65;;;;;;;15.41;42.67;91976.81;5003824;28;20073;-84
2021/12/08 03:52:07;;;;;;;7.93;5.75;;;;;;;15.43;42.68;91966.84;4954338;28;20042;-84
2021/12/08 03:54:33;;;;;;;8.13;5.85;;;;;;;15.51;42.29;91979.84;4955286;28;20042;-84
2021/12/08 03:56:58;;;;;;;7.95;6.55;;;;;;;15.40;42.64;91967.16;4971595;28;20039;-84
2021/12/08 03:59:24;;;;;;;8.85;6.88;;;;;;;15.42;42.61;91975.56;4982207;28;20046;-84
2021/12/08 04:01:50;;;;;;;7.18;6.00;;;;;;;15.44;42.35;91968.31;4990887;28;20042;-87
2021/12/08 04:04:15;;;;;;;6.88;5.00;;;;;;;15.43;42.42;91949.78;4974503;28;20560;-84
2021/12/08 04:06:47;;;;;;;6.70;5.32;;;;;;;15.42;42.79;91949.06;4974885;28;20045;-85
2021/12/08 04:09:18;;;;;;;8.18;5.95;;;;;;;15.42;42.49;91938.16;4991612;28;20042;-84
2021/12/08 04:11:45;;;;;;;;;;;;;;;15.44;42.37;91935.66;4987239;28;20070;-86
2021/12/08 04:14:12;;;;;;;6.03;4.63;;;;;;;15.42;42.52;91932.72;5006417;28;20439;-85
2021/12/08 04:16:41;;;;;;;5.43;4.75;;;;;;;15.37;42.42;91932.84;4986716;28;20050;-84
2021/12/08 04:19:07;;;;;;;7.22;5.50;;;;;;;15.36;42.69;91934.84;5003081;28;20048;-85
2021/12/08 04:21:32;;;;;;;6.82;5.10;;;;;;;15.33;42.67;91933.16;5003302;28;20046;-85
2021/12/08 04:23:58;;;;;;;7.10;4.70;;;;;;;15.38;42.56;91934.28;4990401;28;20038;-85
2021/12/08 04:26:33;;;;;;;8.63;5.18;;;;;;;15.35;42.56;91930.66;4989856;28;20034;-90
2021/12/08 04:28:59;;;;;;;5.95;5.00;;;;;;;15.41;42.68;91938.69;4975630;28;20463;-88
2021/12/08 04:31:27;;;;;;;7.32;5.63;;;;;;;15.41;42.36;91933.97;4989842;28;20050;-90
2021/12/08 04:33:55;;;;;;;7.97;5.57;;;;;;;15.38;42.76;91929.56;4976345;28;20034;-85
2021/12/08 04:36:21;;;;;;;5.22;4.15;;;;;;;15.37;42.45;91932.84;4987940;28;20409;-86
2021/12/08 04:38:50;;;;;;;5.75;4.57;;;;;;;15.45;42.38;91933.66;5007476;28;20033;-84
2021/12/08 04:41:22;;;;;;;7.10;4.63;;;;;;;15.43;42.34;91931.47;4994131;28;20103;-84
2021/12/08 04:43:59;;;;;;;8.00;5.45;;;;;;;15.40;42.56;91929.06;4979129;28;20038;-86
2021/12/08 04:46:50;;;;;;;6.70;4.85;;;;;;;15.36;42.35;91926.69;4994740;28;20040;-88
2021/12/08 05:02:35;;;;;;;5.93;4.68;;;;;;;15.34;42.88;91931.19;5003146;28;20072;-84
2021/12/08 05:05:14;;;;;;;5.20;4.65;;;;;;;15.33;42.54;91932.44;5010418;28;20038;-85
2021/12/08 05:10:08;;;;;;;6.15;4.18;;;;;;;15.36;42.68;91923.22;4993800;28;20088;-89
2021/12/08 05:12:35;;;;;;;7.13;4.75;;;;;;;15.34;42.48;91934.63;4993670;28;20547;-84
2021/12/08 05:15:04;;;;;;;8.20;5.38;;;;;;;15.38;42.35;91935.03;4990071;28;20528;-84
2021/12/08 05:17:35;;;;;;;5.40;4.50;;;;;;;15.39;42.05;91927.59;5001494;28;20052;-84
2021/12/08 05:20:00;;;;;;;;;;;;;;;15.39;42.54;91933.75;4994757;28;20034;-88
2021/12/08 05:22:32;;;;;;;7.05;5.07;;;;;;;15.35;42.59;91922.50;4992582;28;19918;-89
2021/12/08 05:25:01;;;;;;;7.20;4.78;;;;;;;15.39;42.48;91928.31;5007388;28;20038;-83
2021/12/08 05:27:33;;;;;;;6.38;4.70;;;;;;;15.34;42.26;91918.31;4993163;28;20058;-87
2021/12/08 05:30:12;;;;;;;5.55;4.40;;;;;;;15.33;42.25;91922.28;4977522;28;20500;-84
2021/12/08 05:32:37;;;;;;;5.20;4.03;;;;;;;15.30;42.71;91912.44;4993729;28;20347;-83
2021/12/08 05:35:05;;;;;;;4.53;3.88;;;;;;;15.34;42.32;91921.03;4992048;28;20030;-84
2021/12/08 05:37:30;;;;;;;5.25;3.90;;;;;;;15.36;42.44;91926.69;4993287;28;20038;-83
2021/12/08 05:39:55;;;;;;;4.55;3.65;;;;;;;15.40;42.26;91918.91;4993122;28;20046;-84
2021/12/08 05:42:25;;;;;;;5.00;3.97;;;;;;;15.37;42.50;91927.41;4991975;28;20110;-83
2021/12/08 05:44:51;;;;;;;5.53;4.53;;;;;;;15.35;42.43;91911.59;4976891;28;20503;-84
2021/12/08 05:47:18;;;;;;;6.15;4.28;;;;;;;15.35;42.45;91919.75;4991705;28;20544;-84
2021/12/08 05:49:44;;;;;;;3.95;3.47;;;;;;;15.33;42.42;91905.22;4993027;28;20042;-85
2021/12/08 05:52:09;;;;;;;6.53;3.90;;;;;;;15.36;42.29;91912.31;4992061;28;20034;-84
2021/12/08 05:54:37;;;;;;;5.10;4.00;;;;;;;15.36;42.57;91915.06;5009259;28;20045;-84
2021/12/08 05:57:07;;;;;;;4.07;2.97;;;;;;;15.36;42.49;91918.50;4992748;28;20026;-88
2021/12/08 05:59:32;;;;;;;5.38;3.75;;;;;;;15.36;42.30;91921.22;4976211;28;20115;-85
2021/12/08 06:02:02;;;;;;;4.93;3.88;;;;;;;15.36;42.23;91917.78;4989984;28;20525;-91
2021/12/08 06:04:28;;;;;;;4.63;3.57;;;;;;;15.38;42.09;91912.50;5005490;28;20040;-84
2021/12/08 06:06:55;;;;;;;4.32;3.75;;;;;;;15.37;42.37;91919.25;5005281;28;20441;-89
2021/12/08 06:09:21;;;;;;;4.70;3.50;;;;;;;15.35;42.46;91924.47;4990863;28;20038;-84
2021/12/08 06:11:46;;;;;;;5.65;3.90;;;;;;;15.43;42.14;91920.56;4990586;28;20424;-84
2021/12/08 06:14:12;;;;;;;4.47;3.03;;;;;;;15.44;42.20;91927.47;4991391;28;20037;-84
2021/12/08 06:16:39;;;;;;;3.60;2.70;;;;;;;15.38;42.28;91923.41;4989006;28;20100;-84
2021/12/08 06:19:06;;;;;;;3.05;2.75;;;;;;;15.41;42.15;91925.81;4956382;28;20043;-84
2021/12/08 06:21:31;;;;;;;3.47;3.17;;;;;;;15.37;42.32;91927.41;4973542;28;20042;-85
2021/12/08 06:23:57;;;;;;;6.97;2.90;;;;;;;15.37;42.16;91916.50;4978125;28;20038;-84
2021/12/08 06:26:23;;;;;;;4.30;3.13;;;;;;;15.37;42.17;91922.66;4992217;28;20489;-84
2021/12/08 06:28:49;;;;;;;4.07;3.15;;;;;;;15.37;42.08;91924.69;4992323;28;20033;-84
2021/12/08 06:31:15;;;;;;;4.32;2.70;;;;;;;15.39;42.15;91920.16;4991736;28;20038;-84
2021/12/08 06:33:40;;;;;;;2.92;2.53;;;;;;;15.41;42.16;91927.78;4975805;28;20057;-84
2021/12/08 06:36:10;;;;;;;8.23;2.78;;;;;;;15.38;42.34;91934.28;5007526;28;20042;-83
2021/12/08 06:38:36;;;;;;;3.00;2.27;;;;;;;15.42;41.86;91938.16;4992444;28;20029;-84
2021/12/08 06:41:05;;;;;;;2.75;2.47;;;;;;;15.34;42.24;91931.19;4992071;28;20138;-84
2021/12/08 06:43:35;;;;;;;5.57;3.50;;;;;;;15.36;42.34;91931.38;5007432;28;20040;-84
2021/12/08 06:46:01;;;;;;;4.05;2.67;;;;;;;15.36;42.12;91937.56;4992839;28;20030;-84
2021/12/08 06:48:31;;;;;;;3.38;2.38;;;;;;;15.45;42.29;91922.75;4987693;28;20436;-89
2021/12/08 06:50:58;;;;;;;4.07;2.90;;;;;;;15.41;42.23;91925.06;4988828;28;20050;-83
2021/12/08 06:53:25;;;;;;;4.55;2.70;;;;;;;15.42;42.13;91937.44;4989063;28;20041;-84
2021/12/08 06:55:57;;;;;;;14.40;3.33;;;;;;;15.38;41.92;91939.72;4991594;28;20073;-85
2021/12/08 06:58:24;;;;;;;3.35;2.30;;;;;;;15.47;41.86;91944.03;4974618;28;20515;-86
2021/12/08 07:01:13;;;;;;;2.92;2.63;;;;;;;15.41;42.12;91950.31;4988692;28;20049;-90
2021/12/08 07:03:50;;;;;;;3.08;2.30;;;;;;;15.39;42.36;91947.38;4988472;28;20065;-85
2021/12/08 07:06:41;;;;;;;3.35;2.28;;;;;;;15.40;42.21;91948.84;4977557;28;20138;-86
2021/12/08 07:09:08;;;;;;;4.07;2.10;;;;;;;15.40;42.21;91945.38;4994494;28;20513;-86
2021/12/08 07:11:34;;;;;;;4.88;2.78;;;;;;;15.39;42.09;91947.38;4992137;28;20046;-84
2021/12/08 07:13:59;;;;;;;5.60;2.83;;;;;;;15.39;41.97;91946.66;5007544;28;20044;-84
2021/12/08 07:16:30;;;;;;;3.50;2.08;;;;;;;15.35;42.22;91947.00;4975100;28;20041;-84
2021/12/08 07:19:00;;;;;;;;;;;;;;;15.42;42.05;91942.88;5008428;28;20081;-84
2021/12/08 07:21:33;;;;;;;3.45;2.40;;;;;;;15.41;41.97;91939.41;5023323;28;19922;-84
2021/12/08 07:24:04;;;;;;;3.63;2.33;;;;;;;15.42;42.14;91937.44;5007251;28;20042;-84
2021/12/08 07:26:30;;;;;;;2.95;2.10;;;;;;;15.50;41.89;91934.81;4991307;28;20061;-84
2021/12/08 07:28:56;;;;;;;2.78;2.03;;;;;;;15.42;41.82;91932.72;4975435;28;20491;-87
2021/12/08 07:31:28;;;;;;;2.42;2.20;;;;;;;15.39;42.30;91944.66;4990741;28;20069;-84
2021/12/08 07:33:54;;;;;;;2.90;2.10;;;;;;;15.40;41.81;91937.22;4991459;28;20033;-91
2021/12/08 07:36:20;;;;;;;3.85;2.25;;;;;;;15.41;41.87;91930.53;4989625;28;20046;-85
2021/12/08 07:38:49;;;;;;;3.05;2.20;;;;;;;15.41;42.08;91936.69;4990988;28;20128;-84
2021/12/08 07:41:21;;;;;;;3.55;2.33;;;;;;;15.41;41.94;91944.88;5006371;28;20378;-84
2021/12/08 07:43:49;;;;;;;2.40;2.00;;;;;;;15.36;42.29;91942.28;4991778;28;20042;-86
2021/12/08 07:46:20;;;;;;;1.98;1.77;;;;;;;15.40;42.01;91942.66;4974423;28;20125;-84
2021/12/08 07:48:58;;;;;;;2.22;1.85;;;;;;;15.43;42.08;91945.06;4980119;28;20444;-93
2021/12/08 07:51:28;;;;;;;2.95;2.30;;;;;;;15.49;41.01;91953.13;4974303;28;20119;-84
2021/12/08 07:53:54;;;;;;;2.72;1.80;;;;;;;15.48;41.45;91956.38;5007313;28;20034;-91
2021/12/08 07:56:20;;;;;;;2.08;1.80;;;;;;;15.52;41.95;91959.53;4989918;28;20077;-88
2021/12/08 07:58:48;;;;;;;3.10;2.00;;;;;;;15.46;41.84;91951.47;4975035;28;20527;-84
2021/12/08 08:01:17;;;;;;;2.58;2.25;;;;;;;15.53;41.76;91952.81;4970490;28;20057;-84
2021/12/08 08:03:43;;;;;;;2.25;1.77;;;;;;;15.61;41.30;91956.38;4991264;28;20448;-83
2021/12/08 08:06:11;;;;;;;2.10;1.80;;;;;;;15.54;41.74;91952.28;4990787;28;20061;-91
2021/12/08 08:08:37;;;;;;;1.92;1.50;;;;;;;15.53;41.79;91950.09;4974471;28;20049;-84
2021/12/08 08:11:09;;;;;;;1.88;1.45;;;;;;;15.55;41.38;91953.03;4989701;28;20037;-85
2021/12/08 08:13:35;;;;;;;2.35;1.40;;;;;;;15.58;41.63;91955.47;4990571;28;20034;-88
2021/12/08 08:16:07;;;;;;;2.30;1.88;;;;;;;15.56;41.55;91951.78;4977990;28;20026;-90
2021/12/08 08:18:38;;;;;;;2.75;1.98;;;;;;;15.59;41.43;91950.75;4990705;28;20046;-84
2021/12/08 08:21:07;;;;;;;4.78;1.98;;;;;;;15.60;41.35;91944.75;4990625;28;20696;-84
2021/12/08 08:23:33;;;;;;;2.45;1.80;;;;;;;15.68;41.37;91933.94;5007519;28;20030;-91
2021/12/08 08:25:59;;;;;;;3.65;1.90;;;;;;;15.65;41.14;91935.00;4986643;28;20457;-85
2021/12/08 08:28:24;;;;;;;5.07;1.83;;;;;;;15.70;41.12;91936.88;5003557;28;20070;-85
2021/12/08 08:31:02;;;;;;;6.97;3.80;;;;;;;15.68;41.45;91942.84;4987601;28;20038;-89
2021/12/08 08:33:28;;;;;;;26.35;7.55;;;;;;;15.70;41.38;91943.06;4986951;28;20042;-84
2021/12/08 08:35:55;;;;;;;18.52;10.63;;;;;;;15.68;41.47;91951.03;5003558;28;20355;-84
2021/12/08 08:38:26;;;;;;;22.83;13.57;;;;;;;15.64;41.63;91955.31;5004570;28;20527;-84
2021/12/08 08:41:00;;;;;;;30.17;17.77;;;;;;;15.66;41.16;91939.91;5006756;28;20794;-84
2021/12/08 08:43:25;;;;;;;33.28;17.70;;;;;;;15.74;41.11;91937.28;4974420;28;20072;-89
2021/12/08 08:46:00;;;;;;;46.03;26.50;;;;;;;15.69;41.26;91929.97;4974792;28;20038;-89
2021/12/08 08:48:32;;;;;;;42.28;25.98;;;;;;;15.68;41.31;91929.22;4968223;28;20042;-88
2021/12/08 08:51:07;;;;;;;75.82;41.63;;;;;;;15.72;41.30;91932.38;4970253;28;20419;-85
2021/12/08 08:53:34;;;;;;;52.10;28.13;;;;;;;15.74;41.15;91934.56;4985111;28;20038;-85
2021/12/08 08:56:21;;;;;;;55.70;27.38;;;;;;;15.75;40.92;91934.03;4969698;28;20043;-85
2021/12/08 08:58:49;;;;;;;57.92;32.47;;;;;;;15.75;41.37;91925.84;4984818;28;20069;-85
2021/12/08 09:01:17;;;;;;;73.20;36.90;;;;;;;15.72;41.11;91920.72;4952305;28;20046;-85
2021/12/08 09:03:46;;;;;;;83.65;42.65;;;;;;;15.72;41.01;91916.00;4953403;28;20456;-84
2021/12/08 09:06:15;;;;;;;103.07;54.38;;;;;;;15.68;41.68;91912.88;4968721;28;20034;-85
2021/12/08 09:08:41;;;;;;;99.13;55.33;;;;;;;15.70;41.51;91901.47;4952990;28;20121;-84
2021/12/08 09:11:15;;;;;;;104.43;57.30;;;;;;;15.75;41.15;91890.44;4952045;28;20508;-85
2021/12/08 09:13:48;;;;;;;102.55;56.08;;;;;;;15.76;40.97;91886.47;4969002;28;20046;-84
2021/12/08 09:16:22;;;;;;;111.65;58.90;;;;;;;15.75;41.03;91889.72;4965439;28;20070;-84
2021/12/08 09:18:58;;;;;;;96.32;54.30;;;;;;;15.75;40.88;91890.44;4971453;28;20417;-84
2021/12/08 09:21:40;;;;;;;128.00;60.03;;;;;;;15.76;41.27;91880.28;4958183;28;20141;-84
2021/12/08 09:24:08;;;;;;;130.38;71.40;;;;;;;15.80;41.19;91890.84;4990002;28;20043;-85
2021/12/08 09:26:37;;;;;;;124.05;69.07;;;;;;;15.77;40.93;91887.19;5005085;28;20036;-85
2021/12/08 09:29:18;;;;;;;136.18;75.10;;;;;;;15.80;41.29;91885.41;4977438;28;20589;-85
2021/12/08 09:31:54;;;;;;;137.93;79.40;;;;;;;15.84;40.95;91886.50;5010965;28;20061;-86
2021/12/08 09:34:23;;;;;;;149.52;79.30;;;;;;;15.84;41.19;91880.34;4995030;28;20496;-85
2021/12/08 09:36:55;;;;;;;133.05;69.95;;;;;;;15.77;41.40;91887.91;4993850;28;20053;-85
2021/12/08 09:39:28;;;;;;;122.50;66.57;;;;;;;15.71;41.62;91875.69;4993766;28;20030;-85
2021/12/08 09:42:03;;;;;;;153.35;86.13;;;;;;;15.72;41.80;91866.25;4989711;28;20113;-93
2021/12/08 09:44:31;;;;;;;151.48;77.43;;;;;;;15.69;41.46;91868.03;4977840;28;20092;-85
2021/12/08 09:46:56;;;;;;;150.52;86.03;;;;;;;15.72;41.40;91863.53;4973260;28;20389;-84
2021/12/08 09:49:24;;;;;;;127.55;77.00;;;;;;;15.70;41.34;91855.16;4999379;28;20042;-84
2021/12/08 09:51:51;;;;;;;124.13;70.85;;;;;;;15.77;41.09;91854.50;4957925;28;20043;-90
2021/12/08 09:54:16;;;;;;;114.18;64.75;;;;;;;15.75;41.27;91859.75;4974992;28;20049;-87
2021/12/08 09:56:44;;;;;;;138.77;80.45;;;;;;;15.77;41.57;91851.78;4990844;28;20050;-84
2021/12/08 09:59:10;;;;;;;128.15;73.07;;;;;;;15.71;41.38;91846.44;4957744;28;20061;-84
2021/12/08 10:01:39;;;;;;;120.22;70.43;;;;;;;15.71;41.28;91854.63;4995888;28;20508;-85
2021/12/08 10:04:04;;;;;;;141.88;82.43;;;;;;;15.78;41.45;91853.25;4993419;28;20044;-85
2021/12/08 10:06:29;;;;;;;145.02;79.18;;;;;;;15.78;41.06;91845.06;4992214;28;20046;-91
2021/12/08 10:08:57;;;;;;;143.65;84.53;;;;;;;15.79;41.28;91840.34;4975996;28;20088;-85
2021/12/08 10:11:23;;;;;;;125.40;71.60;;;;;;;15.80;41.02;91834.38;4974877;28;20041;-85
2021/12/08 10:13:49;;;;;;;161.05;91.38;;;;;;;15.80;41.21;91828.19;5007686;28;20050;-84
2021/12/08 10:16:14;;;;;;;142.15;78.70;;;;;;;15.83;41.25;91833.28;4975771;28;20027;-85
2021/12/08 10:18:40;;;;;;;134.07;73.50;;;;;;;15.79;41.15;91810.38;4992498;28;20037;-85
2021/12/08 10:21:06;;;;;;;129.38;76.38;;;;;;;15.75;41.27;91825.06;4975848;28;20517;-85
2021/12/08 10:23:36;;;;;;;124.55;66.28;;;;;;;15.76;41.26;91815.63;4992770;28;20505;-84
2021/12/08 10:26:11;;;;;;;142.90;75.97;;;;;;;15.73;41.34;91821.41;4992211;28;20492;-86
2021/12/08 10:28:39;;;;;;;133.13;77.28;;;;;;;15.75;41.27;91807.97;4976403;28;20041;-84
2021/12/08 10:31:07;;;;;;;128.68;73.70;;;;;;;15.74;41.28;91815.41;4992120;28;20493;-84
2021/12/08 10:36:33;;;;;;;127.25;69.53;;;;;;;15.78;41.19;91809.66;5009796;28;20138;-84
2021/12/08 10:38:59;;;;;;;168.50;81.20;;;;;;;15.74;41.37;91807.25;4992165;28;20475;-89
2021/12/08 10:41:25;;;;;;;117.63;65.53;;;;;;;15.75;41.24;91794.34;4972216;28;20161;-84
2021/12/08 10:43:58;;;;;;;138.98;74.88;;;;;;;15.71;41.16;91788.50;4972860;28;20493;-85
2021/12/08 10:46:32;;;;;;;123.43;67.22;;;;;;;15.73;41.59;91796.88;4956595;28;20425;-84
2021/12/08 10:49:14;;;;;;;139.10;73.35;;;;;;;15.69;41.31;91791.75;4976803;28;20117;-84
2021/12/08 10:54:30;;;;;;;118.03;64.65;;;;;;;15.68;41.46;91790.31;4989135;28;19968;-85
2021/12/08 10:56:57;;;;;;;121.30;61.35;;;;;;;15.69;41.54;91791.03;4972070;28;20034;-84
2021/12/08 10:59:28;;;;;;;133.00;67.07;;;;;;;15.70;41.48;91787.03;4971689;28;20053;-86
2021/12/08 11:02:03;;;;;;;117.82;65.50;;;;;;;15.69;41.59;91761.81;4971601;28;20034;-86
2021/12/08 11:04:30;;;;;;;112.72;60.10;;;;;;;15.69;41.40;91769.97;4968659;28;20557;-84
2021/12/08 11:07:03;;;;;;;120.88;66.07;;;;;;;15.72;41.33;91765.44;4956629;28;20099;-93
2021/12/08 11:09:29;;;;;;;102.78;56.72;;;;;;;15.71;41.23;91759.28;4956437;28;20069;-84
2021/12/08 11:12:03;;;;;;;90.72;50.13;;;;;;;15.69;41.26;91761.06;4955947;28;20090;-94
2021/12/08 11:14:28;;;;;;;111.10;59.63;;;;;;;15.74;41.30;91776.56;4956994;28;20563;-86
2021/12/08 11:16:54;;;;;;;127.07;63.65;;;;;;;15.75;41.35;91769.84;4969331;28;20043;-88
2021/12/08 11:19:21;;;;;;;130.15;63.40;;;;;;;15.74;41.41;91766.38;4984549;28;20045;-85
2021/12/08 11:21:49;;;;;;;111.00;60.50;;;;;;;15.74;41.13;91763.66;4973956;28;20038;-89
2021/12/08 11:24:30;;;;;;;109.65;60.60;;;;;;;15.77;41.30;91764.59;4967736;28;20034;-84
2021/12/08 11:26:57;;;;;;;118.18;57.88;;;;;;;15.77;41.45;91751.69;4968060;28;20096;-84
2021/12/08 11:29:24;;;;;;;118.75;67.65;;;;;;;15.76;41.39;91755.69;4984068;28;20046;-85
2021/12/08 11:31:52;;;;;;;114.10;62.80;;;;;;;15.72;41.42;91752.56;4985178;28;20457;-94
2021/12/08 11:34:29;;;;;;;128.25;69.53;;;;;;;15.74;41.35;91758.22;4968293;28;20074;-85
2021/12/08 11:36:57;;;;;;;129.00;72.35;;;;;;;15.77;41.33;91746.25;4984919;28;20045;-85
2021/12/08 11:39:33;;;;;;;143.80;81.65;;;;;;;15.77;41.35;91734.63;4983679;28;20062;-84
2021/12/08 11:42:06;;;;;;;142.50;80.57;;;;;;;15.74;41.51;91741.88;4968491;28;20339;-84
2021/12/08 11:44:32;;;;;;;156.60;86.38;;;;;;;15.77;41.41;91727.19;4983961;28;20174;-84
2021/12/08 11:47:03;;;;;;;140.30;82.88;;;;;;;15.75;40.87;91721.53;4976648;28;20124;-89
2021/12/08 11:49:29;;;;;;;154.50;88.43;;;;;;;15.76;41.17;91728.44;4962114;28;20093;-85
2021/12/08 11:52:09;;;;;;;155.77;90.93;;;;;;;15.79;41.20;91728.63;4971857;28;20117;-87
2021/12/08 11:54:38;;;;;;;166.98;94.10;;;;;;;15.81;41.16;91724.09;4972823;28;20065;-85
2021/12/08 11:57:12;;;;;;;146.95;84.78;;;;;;;15.81;41.35;91715.19;4988616;28;20041;-84
2021/12/08 11:59:45;;;;;;;176.90;101.63;;;;;;;15.82;41.12;91722.84;4955895;28;20521;-84
2021/12/08 12:02:13;;;;;;;176.75;103.30;;;;;;;15.84;41.69;91711.41;4986636;28;20555;-84
2021/12/08 12:04:39;;;;;;;177.23;104.85;;;;;;;15.80;41.07;91714.50;4988128;28;20138;-85
2021/12/08 12:07:05;;;;;;;181.18;104.47;;;;;;;15.78;41.48;91706.13;4986825;28;20078;-85
2021/12/08 12:09:30;;;;;;;191.57;110.05;;;;;;;15.83;41.10;91701.75;4987979;28;20034;-85
2021/12/08 12:11:58;;;;;;;160.48;99.82;;;;;;;15.82;41.05;91701.03;4987394;28;20445;-84